createdAt,value
2022-12-04T00:00:01.832Z,0.00
2022-12-04T00:01:01.842Z,0.00
2022-12-04T00:02:01.909Z,0.00
2022-12-04T00:03:02.008Z,0.00
2022-12-04T00:04:01.823Z,0.00
2022-12-04T00:05:01.876Z,0.00
2022-12-04T00:06:01.786Z,0.00
2022-12-04T00:07:01.782Z,0.00
2022-12-04T00:08:01.862Z,0.00
2022-12-04T00:09:01.900Z,0.00
2022-12-04T00:10:01.896Z,0.00
2022-12-04T00:11:01.771Z,0.00
2022-12-04T00:12:01.784Z,0.00
2022-12-04T00:13:01.724Z,0.00
2022-12-04T00:14:06.879Z,0.00
2022-12-04T00:16:02.756Z,0.00
2022-12-04T00:17:01.652Z,0.00
2022-12-04T00:18:01.664Z,0.00
2022-12-04T00:19:01.673Z,0.00
2022-12-04T00:20:01.648Z,0.00
2022-12-04T00:21:01.645Z,0.00
2022-12-04T00:22:01.901Z,0.00
2022-12-04T00:23:01.601Z,0.00
2022-12-04T00:24:01.632Z,0.00
2022-12-04T00:25:01.654Z,0.00
2022-12-04T00:26:01.702Z,0.00
2022-12-04T00:27:01.601Z,0.00
2022-12-04T00:28:01.537Z,0.00
2022-12-04T00:29:01.554Z,0.00
2022-12-04T00:30:01.526Z,0.00
2022-12-04T00:31:01.518Z,0.00
2022-12-04T00:32:01.588Z,0.00
2022-12-04T00:33:01.519Z,0.00
2022-12-04T00:34:02.374Z,0.00
2022-12-04T00:35:01.464Z,0.00
2022-12-04T00:36:01.540Z,0.00
2022-12-04T00:37:01.461Z,0.00
2022-12-04T00:38:01.424Z,0.00
2022-12-04T00:39:01.448Z,0.00
2022-12-04T00:40:01.436Z,0.00
2022-12-04T00:41:01.412Z,0.00
2022-12-04T00:42:01.409Z,0.00
2022-12-04T00:43:01.402Z,0.00
2022-12-04T00:44:01.404Z,0.00
2022-12-04T00:45:01.384Z,0.00
2022-12-04T00:46:01.777Z,0.00
2022-12-04T00:47:01.338Z,0.00
2022-12-04T00:48:01.453Z,0.00
2022-12-04T00:49:01.386Z,0.00
2022-12-04T00:50:01.313Z,0.00
2022-12-04T00:51:01.311Z,0.00
2022-12-04T00:52:01.296Z,0.00
2022-12-04T00:53:01.329Z,0.00
2022-12-04T00:54:01.320Z,0.00
2022-12-04T00:55:01.262Z,0.00
2022-12-04T00:56:01.302Z,0.00
2022-12-04T00:57:01.262Z,0.00
2022-12-04T00:58:01.290Z,0.00
2022-12-04T00:59:01.308Z,0.00
2022-12-04T01:00:01.203Z,0.00
2022-12-04T01:01:01.481Z,0.00
2022-12-04T01:02:01.212Z,0.00
2022-12-04T01:03:01.250Z,0.00
2022-12-04T01:04:01.468Z,0.00
2022-12-04T01:05:01.234Z,0.00
2022-12-04T01:06:01.141Z,0.00
2022-12-04T01:07:05.000Z,0.00
2022-12-04T01:08:01.176Z,0.00
2022-12-04T01:09:01.173Z,0.00
2022-12-04T01:10:01.147Z,0.00
2022-12-04T01:11:01.100Z,0.00
2022-12-04T01:12:01.070Z,0.00
2022-12-04T01:13:01.090Z,0.00
2022-12-04T01:14:01.088Z,0.00
2022-12-04T01:15:01.128Z,0.00
2022-12-04T01:16:01.073Z,0.00
2022-12-04T01:17:01.169Z,0.00
2022-12-04T01:18:01.026Z,0.00
2022-12-04T01:19:01.036Z,0.00
2022-12-04T01:20:01.039Z,0.00
2022-12-04T01:21:00.991Z,0.00
2022-12-04T01:22:00.974Z,0.00
2022-12-04T01:23:00.995Z,0.00
2022-12-04T01:24:01.043Z,0.00
2022-12-04T01:25:00.951Z,0.00
2022-12-04T01:26:01.091Z,0.00
2022-12-04T01:27:01.029Z,0.00
2022-12-04T01:28:00.923Z,0.00
2022-12-04T01:29:00.927Z,0.00
2022-12-04T01:30:00.917Z,0.00
2022-12-04T01:31:00.946Z,0.00
2022-12-04T01:32:00.961Z,0.00
2022-12-04T01:33:00.869Z,0.00
2022-12-04T01:34:00.967Z,0.00
2022-12-04T01:35:00.967Z,0.00
2022-12-04T01:36:00.896Z,0.00
2022-12-04T01:37:00.826Z,0.00
2022-12-04T01:38:00.823Z,0.00
2022-12-04T01:39:00.849Z,0.00
2022-12-04T01:40:00.840Z,0.00
2022-12-04T01:41:00.847Z,0.00
2022-12-04T01:42:00.780Z,0.00
2022-12-04T01:43:00.963Z,0.00
2022-12-04T01:44:00.847Z,0.00
2022-12-04T01:45:00.800Z,0.00
2022-12-04T01:46:00.779Z,0.00
2022-12-04T01:47:00.741Z,0.00
2022-12-04T01:48:00.732Z,0.00
2022-12-04T01:49:00.913Z,0.00
2022-12-04T01:50:00.686Z,0.00
2022-12-04T01:51:00.752Z,0.00
2022-12-04T01:52:00.668Z,0.00
2022-12-04T01:53:00.651Z,0.00
2022-12-04T01:54:00.663Z,0.00
2022-12-04T01:55:00.632Z,0.00
2022-12-04T01:56:00.819Z,0.00
2022-12-04T01:57:00.643Z,0.00
2022-12-04T01:58:00.639Z,0.00
2022-12-04T01:59:00.646Z,0.00
2022-12-04T02:00:00.645Z,0.00
2022-12-04T02:01:03.677Z,0.00
2022-12-04T02:02:01.694Z,0.00
2022-12-04T02:03:00.648Z,0.00
2022-12-04T02:04:00.568Z,0.00
2022-12-04T02:05:00.607Z,0.00
2022-12-04T02:06:00.519Z,0.00
2022-12-04T02:07:00.560Z,0.00
2022-12-04T02:08:00.579Z,0.00
2022-12-04T02:09:00.542Z,0.00
2022-12-04T02:10:00.500Z,0.00
2022-12-04T02:11:00.615Z,0.00
2022-12-04T02:12:00.457Z,0.00
2022-12-04T02:13:00.484Z,0.00
2022-12-04T02:14:00.457Z,0.00
2022-12-04T02:15:00.421Z,0.00
2022-12-04T02:16:00.432Z,0.00
2022-12-04T02:17:00.440Z,0.00
2022-12-04T02:18:00.392Z,0.00
2022-12-04T02:19:00.420Z,0.00
2022-12-04T02:20:00.417Z,0.00
2022-12-04T02:21:00.403Z,0.00
2022-12-04T02:22:00.393Z,0.00
2022-12-04T02:23:00.350Z,0.00
2022-12-04T02:24:00.356Z,0.00
2022-12-04T02:25:00.357Z,0.00
2022-12-04T02:26:00.300Z,0.00
2022-12-04T02:27:00.338Z,0.00
2022-12-04T02:28:00.327Z,0.00
2022-12-04T02:29:00.321Z,0.00
2022-12-04T02:30:00.343Z,0.00
2022-12-04T02:31:00.361Z,0.00
2022-12-04T02:32:00.250Z,0.00
2022-12-04T02:33:00.247Z,0.00
2022-12-04T02:34:00.325Z,0.00
2022-12-04T02:35:00.324Z,0.00
2022-12-04T02:36:00.380Z,0.00
2022-12-04T02:37:00.223Z,0.00
2022-12-04T02:38:00.226Z,0.00
2022-12-04T02:39:00.212Z,0.00
2022-12-04T02:40:00.161Z,0.00
2022-12-04T02:41:00.165Z,0.00
2022-12-04T02:42:00.146Z,0.00
2022-12-04T02:43:00.143Z,0.00
2022-12-04T02:44:00.151Z,0.00
2022-12-04T02:45:00.129Z,0.00
2022-12-04T02:46:00.222Z,0.00
2022-12-04T02:47:00.224Z,0.00
2022-12-04T02:48:00.127Z,0.00
2022-12-04T02:49:00.111Z,0.00
2022-12-04T02:50:00.090Z,0.00
2022-12-04T02:51:00.078Z,0.00
2022-12-04T02:52:00.062Z,0.00
2022-12-04T02:53:00.039Z,0.00
2022-12-04T02:54:00.086Z,0.00
2022-12-04T02:55:04.012Z,0.00
2022-12-04T02:56:01.002Z,0.00
2022-12-04T02:57:00.030Z,0.00
2022-12-04T02:58:00.004Z,0.00
2022-12-04T02:59:00.045Z,0.00
2022-12-04T03:00:00.036Z,0.00
2022-12-04T03:00:59.976Z,0.00
2022-12-04T03:02:00.015Z,0.00
2022-12-04T03:03:00.024Z,0.00
2022-12-04T03:04:00.384Z,0.00
2022-12-04T03:04:59.941Z,0.00
2022-12-04T03:05:59.920Z,0.00
2022-12-04T03:06:59.896Z,0.00
2022-12-04T03:07:59.949Z,0.00
2022-12-04T03:08:59.901Z,0.00
2022-12-04T03:09:59.920Z,0.00
2022-12-04T03:10:59.833Z,0.00
2022-12-04T03:11:59.864Z,0.00
2022-12-04T03:12:59.821Z,0.00
2022-12-04T03:13:59.886Z,0.00
2022-12-04T03:14:59.814Z,0.00
2022-12-04T03:15:59.924Z,0.00
2022-12-04T03:16:59.866Z,0.00
2022-12-04T03:17:59.837Z,0.00
2022-12-04T03:18:59.826Z,0.00
2022-12-04T03:19:59.827Z,0.00
2022-12-04T03:20:59.814Z,0.00
2022-12-04T03:21:59.740Z,0.00
2022-12-04T03:22:59.764Z,0.00
2022-12-04T03:23:59.720Z,0.00
2022-12-04T03:24:59.735Z,0.00
2022-12-04T03:25:59.800Z,0.00
2022-12-04T03:26:59.687Z,0.00
2022-12-04T03:27:59.680Z,0.00
2022-12-04T03:28:59.666Z,0.00
2022-12-04T03:29:59.642Z,0.00
2022-12-04T03:30:59.836Z,0.00
2022-12-04T03:31:59.656Z,0.00
2022-12-04T03:32:59.669Z,0.00
2022-12-04T03:33:59.626Z,0.00
2022-12-04T03:34:59.586Z,0.00
2022-12-04T03:35:59.642Z,0.00
2022-12-04T03:36:59.576Z,0.00
2022-12-04T03:37:59.597Z,0.00
2022-12-04T03:38:59.607Z,0.00
2022-12-04T03:39:59.632Z,0.00
2022-12-04T03:40:59.782Z,0.00
2022-12-04T03:41:59.531Z,0.00
2022-12-04T03:42:59.512Z,0.00
2022-12-04T03:43:59.547Z,0.00
2022-12-04T03:44:59.479Z,0.00
2022-12-04T03:45:59.535Z,0.00
2022-12-04T03:46:59.460Z,0.00
2022-12-04T03:47:59.498Z,0.00
2022-12-04T03:48:59.498Z,0.00
2022-12-04T03:49:59.448Z,0.00
2022-12-04T03:50:59.429Z,0.00
2022-12-04T03:51:59.411Z,0.00
2022-12-04T03:52:59.441Z,0.00
2022-12-04T03:53:59.404Z,0.00
2022-12-04T03:54:59.398Z,0.00
2022-12-04T03:55:59.561Z,0.00
2022-12-04T03:56:59.393Z,0.00
2022-12-04T03:57:59.430Z,0.00
2022-12-04T03:58:59.343Z,0.00
2022-12-04T03:59:59.765Z,0.00
2022-12-04T04:00:59.341Z,0.00
2022-12-04T04:01:59.424Z,0.00
2022-12-04T04:02:59.523Z,0.00
2022-12-04T04:03:59.387Z,0.00
2022-12-04T04:04:59.325Z,0.00
2022-12-04T04:05:59.272Z,0.00
2022-12-04T04:06:59.257Z,0.00
2022-12-04T04:07:59.321Z,0.00
2022-12-04T04:08:59.328Z,0.00
2022-12-04T04:09:59.233Z,0.00
2022-12-04T04:10:59.264Z,0.00
2022-12-04T04:11:59.223Z,0.00
2022-12-04T04:12:59.258Z,0.00
2022-12-04T04:13:59.241Z,0.00
2022-12-04T04:14:59.203Z,0.00
2022-12-04T04:15:59.212Z,0.00
2022-12-04T04:16:59.186Z,0.00
2022-12-04T04:17:59.158Z,0.00
2022-12-04T04:18:59.189Z,0.00
2022-12-04T04:19:59.173Z,0.00
2022-12-04T04:20:59.153Z,0.00
2022-12-04T04:21:59.109Z,0.00
2022-12-04T04:22:59.135Z,0.00
2022-12-04T04:23:59.091Z,0.00
2022-12-04T04:24:59.075Z,0.00
2022-12-04T04:25:59.095Z,0.00
2022-12-04T04:26:59.318Z,0.00
2022-12-04T04:27:59.054Z,0.00
2022-12-04T04:28:59.045Z,0.00
2022-12-04T04:29:59.214Z,0.00
2022-12-04T04:30:59.085Z,0.00
2022-12-04T04:31:59.006Z,0.00
2022-12-04T04:32:59.041Z,0.00
2022-12-04T04:33:59.012Z,0.00
2022-12-04T04:34:59.106Z,0.00
2022-12-04T04:35:58.960Z,0.00
2022-12-04T04:36:58.943Z,0.00
2022-12-04T04:37:58.993Z,0.00
2022-12-04T04:38:58.976Z,0.00
2022-12-04T04:39:58.926Z,0.00
2022-12-04T04:40:58.899Z,0.00
2022-12-04T04:41:58.935Z,0.00
2022-12-04T04:42:58.940Z,0.00
2022-12-04T04:43:58.909Z,0.00
2022-12-04T04:44:58.857Z,0.00
2022-12-04T04:45:58.945Z,0.00
2022-12-04T04:46:58.839Z,0.00
2022-12-04T04:47:58.835Z,0.00
2022-12-04T04:48:58.835Z,0.00
2022-12-04T04:49:58.926Z,0.00
2022-12-04T04:50:58.804Z,0.00
2022-12-04T04:51:58.907Z,0.00
2022-12-04T04:52:58.775Z,0.00
2022-12-04T04:53:58.792Z,0.00
2022-12-04T04:54:58.754Z,0.00
2022-12-04T04:55:58.795Z,0.00
2022-12-04T04:56:58.732Z,0.00
2022-12-04T04:57:58.755Z,0.00
2022-12-04T04:58:58.887Z,0.00
2022-12-04T04:59:58.792Z,0.00
2022-12-04T05:00:58.700Z,0.00
2022-12-04T05:01:58.778Z,0.00
2022-12-04T05:02:58.681Z,0.00
2022-12-04T05:03:58.703Z,0.00
2022-12-04T05:04:58.937Z,0.00
2022-12-04T05:05:58.676Z,0.00
2022-12-04T05:06:58.666Z,0.00
2022-12-04T05:07:58.771Z,0.00
2022-12-04T05:08:58.908Z,0.00
2022-12-04T05:09:58.964Z,0.00
2022-12-04T05:10:58.602Z,0.00
2022-12-04T05:11:58.614Z,0.00
2022-12-04T05:12:58.645Z,0.00
2022-12-04T05:13:58.725Z,0.00
2022-12-04T05:14:58.608Z,0.00
2022-12-04T05:15:58.697Z,0.00
2022-12-04T05:17:01.850Z,0.00
2022-12-04T05:17:58.593Z,0.00
2022-12-04T05:18:58.538Z,0.00
2022-12-04T05:19:58.825Z,0.00
2022-12-04T05:20:58.504Z,0.00
2022-12-04T05:21:58.690Z,0.00
2022-12-04T05:22:58.515Z,0.00
2022-12-04T05:23:58.501Z,0.00
2022-12-04T05:24:58.519Z,0.00
2022-12-04T05:25:58.488Z,0.00
2022-12-04T05:26:58.553Z,0.00
2022-12-04T05:27:58.420Z,0.00
2022-12-04T05:28:58.538Z,0.00
2022-12-04T05:29:58.750Z,0.00
2022-12-04T05:30:58.553Z,0.00
2022-12-04T05:31:58.409Z,0.00
2022-12-04T05:32:58.433Z,0.00
2022-12-04T05:33:58.404Z,0.00
2022-12-04T05:34:58.415Z,0.00
2022-12-04T05:35:58.358Z,0.00
2022-12-04T05:36:58.316Z,0.00
2022-12-04T05:37:58.367Z,0.00
2022-12-04T05:38:58.317Z,0.00
2022-12-04T05:39:58.614Z,0.00
2022-12-04T05:40:58.338Z,0.00
2022-12-04T05:41:58.283Z,0.00
2022-12-04T05:42:58.301Z,0.00
2022-12-04T05:43:58.285Z,0.00
2022-12-04T05:44:58.251Z,0.00
2022-12-04T05:45:58.283Z,0.00
2022-12-04T05:46:58.294Z,0.00
2022-12-04T05:47:58.286Z,0.00
2022-12-04T05:48:58.233Z,0.00
2022-12-04T05:49:58.521Z,0.00
2022-12-04T05:50:58.183Z,0.00
2022-12-04T05:51:58.225Z,0.00
2022-12-04T05:52:58.161Z,0.00
2022-12-04T05:53:58.233Z,0.00
2022-12-04T05:54:58.157Z,0.00
2022-12-04T05:55:58.178Z,0.00
2022-12-04T05:56:58.122Z,0.00
2022-12-04T05:57:58.234Z,0.00
2022-12-04T05:58:58.157Z,0.00
2022-12-04T05:59:58.489Z,0.00
2022-12-04T06:00:58.096Z,0.00
2022-12-04T06:01:58.196Z,0.00
2022-12-04T06:02:58.153Z,0.00
2022-12-04T06:03:58.094Z,0.00
2022-12-04T06:04:58.029Z,0.00
2022-12-04T06:05:58.020Z,0.00
2022-12-04T06:06:58.023Z,0.00
2022-12-04T06:07:58.125Z,0.00
2022-12-04T06:08:58.072Z,0.00
2022-12-04T06:09:58.447Z,0.00
2022-12-04T06:10:57.967Z,0.00
2022-12-04T06:11:57.966Z,0.00
2022-12-04T06:12:57.943Z,0.00
2022-12-04T06:13:57.961Z,0.00
2022-12-04T06:14:57.937Z,0.00
2022-12-04T06:15:58.003Z,0.00
2022-12-04T06:16:58.011Z,0.00
2022-12-04T06:17:57.941Z,0.00
2022-12-04T06:18:57.917Z,0.00
2022-12-04T06:19:58.419Z,0.00
2022-12-04T06:20:57.925Z,0.00
2022-12-04T06:21:57.887Z,0.00
2022-12-04T06:22:57.928Z,0.00
2022-12-04T06:23:57.865Z,0.00
2022-12-04T06:24:57.882Z,0.00
2022-12-04T06:26:02.183Z,0.00
2022-12-04T06:27:28.501Z,0.00
2022-12-04T06:27:58.797Z,0.00
2022-12-04T06:28:57.817Z,0.00
2022-12-04T06:29:58.120Z,0.00
2022-12-04T06:30:57.758Z,0.00
2022-12-04T06:31:57.844Z,4.00
2022-12-04T06:32:57.740Z,4.00
2022-12-04T06:33:57.776Z,4.00
2022-12-04T06:34:57.764Z,4.00
2022-12-04T06:35:57.756Z,4.00
2022-12-04T06:36:57.695Z,8.00
2022-12-04T06:37:57.725Z,4.00
2022-12-04T06:38:57.733Z,8.00
2022-12-04T06:39:58.014Z,8.00
2022-12-04T06:40:57.655Z,12.00
2022-12-04T06:41:57.746Z,12.00
2022-12-04T06:42:57.639Z,16.00
2022-12-04T06:43:57.669Z,16.00
2022-12-04T06:44:57.634Z,20.00
2022-12-04T06:45:57.709Z,20.00
2022-12-04T06:47:00.763Z,28.00
2022-12-04T06:47:57.585Z,32.00
2022-12-04T06:48:57.583Z,36.00
2022-12-04T06:49:58.009Z,40.00
2022-12-04T06:50:57.653Z,44.00
2022-12-04T06:51:57.566Z,52.00
2022-12-04T06:52:57.571Z,60.00
2022-12-04T06:53:57.561Z,64.00
2022-12-04T06:54:57.563Z,72.00
2022-12-04T06:55:57.644Z,76.00
2022-12-04T06:56:57.505Z,88.00
2022-12-04T06:57:57.476Z,96.00
2022-12-04T06:58:57.552Z,104.00
2022-12-04T06:59:57.816Z,112.00
2022-12-04T07:00:57.527Z,124.00
2022-12-04T07:01:57.544Z,128.00
2022-12-04T07:02:57.488Z,140.00
2022-12-04T07:03:57.583Z,152.00
2022-12-04T07:04:57.480Z,164.00
2022-12-04T07:05:57.483Z,176.00
2022-12-04T07:06:57.533Z,188.00
2022-12-04T07:07:57.435Z,200.00
2022-12-04T07:08:57.422Z,216.00
2022-12-04T07:09:57.794Z,236.00
2022-12-04T07:10:59.321Z,248.00
2022-12-04T07:11:57.418Z,264.00
2022-12-04T07:12:57.421Z,288.00
2022-12-04T07:13:57.334Z,308.00
2022-12-04T07:14:57.446Z,332.00
2022-12-04T07:15:57.295Z,356.00
2022-12-04T07:16:57.360Z,376.00
2022-12-04T07:17:57.321Z,400.00
2022-12-04T07:18:57.259Z,420.00
2022-12-04T07:19:57.622Z,448.00
2022-12-04T07:20:57.275Z,468.00
2022-12-04T07:21:57.614Z,496.00
2022-12-04T07:22:58.581Z,520.00
2022-12-04T07:23:57.256Z,552.00
2022-12-04T07:24:57.228Z,580.00
2022-12-04T07:25:57.212Z,612.00
2022-12-04T07:26:57.209Z,632.00
2022-12-04T07:27:57.168Z,660.00
2022-12-04T07:28:57.429Z,680.00
2022-12-04T07:29:58.099Z,704.00
2022-12-04T07:30:57.153Z,736.00
2022-12-04T07:31:57.236Z,760.00
2022-12-04T07:32:57.116Z,788.00
2022-12-04T07:33:57.244Z,808.00
2022-12-04T07:34:57.175Z,836.00
2022-12-04T07:35:57.078Z,860.00
2022-12-04T07:36:57.074Z,880.00
2022-12-04T07:37:57.086Z,892.00
2022-12-04T07:38:57.113Z,904.00
2022-12-04T07:39:57.465Z,928.00
2022-12-04T07:40:57.058Z,960.00
2022-12-04T07:41:57.040Z,996.00
2022-12-04T07:42:57.033Z,1040.00
2022-12-04T07:43:57.030Z,1100.00
2022-12-04T07:44:57.255Z,1160.00
2022-12-04T07:45:57.052Z,1216.00
2022-12-04T07:46:57.076Z,1276.00
2022-12-04T07:47:57.031Z,1348.00
2022-12-04T07:48:57.036Z,1420.00
2022-12-04T07:49:57.309Z,1476.00
2022-12-04T07:50:57.007Z,1536.00
2022-12-04T07:51:56.954Z,1584.00
2022-12-04T07:52:56.904Z,1612.00
2022-12-04T07:53:59.575Z,1652.00
2022-12-04T07:54:57.946Z,1712.00
2022-12-04T07:55:56.928Z,1780.00
2022-12-04T07:56:56.955Z,1868.00
2022-12-04T07:57:56.878Z,1960.00
2022-12-04T07:58:56.866Z,2068.00
2022-12-04T07:59:57.147Z,2164.00
2022-12-04T08:00:56.962Z,2268.00
2022-12-04T08:01:57.056Z,2368.00
2022-12-04T08:02:56.858Z,2480.00
2022-12-04T08:03:56.851Z,2596.00
2022-12-04T08:04:56.918Z,2676.00
2022-12-04T08:05:56.771Z,2756.00
2022-12-04T08:06:56.769Z,2844.00
2022-12-04T08:07:56.875Z,2904.00
2022-12-04T08:08:56.802Z,2952.00
2022-12-04T08:09:57.094Z,3024.00
2022-12-04T08:10:56.747Z,3104.00
2022-12-04T08:11:56.718Z,3204.00
2022-12-04T08:12:56.739Z,3288.00
2022-12-04T08:13:56.703Z,3368.00
2022-12-04T08:14:56.700Z,3420.00
2022-12-04T08:15:56.786Z,3472.00
2022-12-04T08:16:56.764Z,3548.00
2022-12-04T08:17:56.665Z,3664.00
2022-12-04T08:18:56.701Z,3792.00
2022-12-04T08:19:57.105Z,3876.00
2022-12-04T08:20:56.668Z,3952.00
2022-12-04T08:21:56.612Z,4028.00
2022-12-04T08:22:56.762Z,4108.00
2022-12-04T08:23:56.737Z,4180.00
2022-12-04T08:24:56.633Z,4188.00
2022-12-04T08:25:56.600Z,4184.00
2022-12-04T08:26:56.604Z,4200.00
2022-12-04T08:27:56.556Z,4188.00
2022-12-04T08:28:56.538Z,4168.00
2022-12-04T08:29:56.820Z,4180.00
2022-12-04T08:30:56.521Z,4300.00
2022-12-04T08:31:56.500Z,4420.00
2022-12-04T08:32:56.491Z,4484.00
2022-12-04T08:33:56.487Z,4508.00
2022-12-04T08:34:56.506Z,4568.00
2022-12-04T08:35:56.447Z,4656.00
2022-12-04T08:36:56.471Z,4732.00
2022-12-04T08:37:56.436Z,4800.00
2022-12-04T08:38:56.477Z,4860.00
2022-12-04T08:39:56.837Z,4940.00
2022-12-04T08:40:56.427Z,5020.00
2022-12-04T08:41:57.291Z,5108.00
2022-12-04T08:42:56.454Z,5168.00
2022-12-04T08:43:56.417Z,5216.00
2022-12-04T08:44:56.419Z,5300.00
2022-12-04T08:45:56.473Z,5444.00
2022-12-04T08:46:56.392Z,5640.00
2022-12-04T08:47:56.332Z,5864.00
2022-12-04T08:48:56.438Z,6028.00
2022-12-04T08:49:56.642Z,6124.00
2022-12-04T08:50:56.324Z,6156.00
2022-12-04T08:51:56.287Z,6108.00
2022-12-04T08:52:56.329Z,6008.00
2022-12-04T08:53:56.283Z,5864.00
2022-12-04T08:54:56.336Z,5704.00
2022-12-04T08:55:56.258Z,5536.00
2022-12-04T08:56:56.245Z,5380.00
2022-12-04T08:57:56.257Z,5248.00
2022-12-04T08:58:56.328Z,5168.00
2022-12-04T08:59:56.423Z,5148.00
2022-12-04T09:00:56.208Z,5168.00
2022-12-04T09:01:56.354Z,5220.00
2022-12-04T09:02:56.189Z,5276.00
2022-12-04T09:03:56.301Z,5344.00
2022-12-04T09:04:56.254Z,5392.00
2022-12-04T09:05:56.165Z,5432.00
2022-12-04T09:06:56.132Z,5456.00
2022-12-04T09:07:56.256Z,5436.00
2022-12-04T09:08:56.172Z,5436.00
2022-12-04T09:09:56.357Z,5468.00
2022-12-04T09:10:56.155Z,5508.00
2022-12-04T09:11:56.079Z,5560.00
2022-12-04T09:12:56.059Z,5620.00
2022-12-04T09:13:56.216Z,5656.00
2022-12-04T09:14:56.094Z,5672.00
2022-12-04T09:15:56.096Z,5616.00
2022-12-04T09:16:56.075Z,5476.00
2022-12-04T09:17:56.024Z,5332.00
2022-12-04T09:18:56.198Z,5300.00
2022-12-04T09:20:00.659Z,5308.00
2022-12-04T09:20:56.994Z,5308.00
2022-12-04T09:21:55.972Z,5324.00
2022-12-04T09:23:04.827Z,5328.00
2022-12-04T09:23:56.996Z,5348.00
2022-12-04T09:24:55.951Z,5396.00
2022-12-04T09:25:55.934Z,5464.00
2022-12-04T09:26:55.923Z,5572.00
2022-12-04T09:27:55.907Z,5744.00
2022-12-04T09:28:55.949Z,5972.00
2022-12-04T09:29:56.126Z,6204.00
2022-12-04T09:30:55.947Z,6408.00
2022-12-04T09:31:56.044Z,6552.00
2022-12-04T09:32:55.853Z,6624.00
2022-12-04T09:33:55.874Z,6648.00
2022-12-04T09:34:55.828Z,6648.00
2022-12-04T09:35:56.010Z,6644.00
2022-12-04T09:36:55.842Z,6684.00
2022-12-04T09:37:55.801Z,6764.00
2022-12-04T09:38:55.856Z,6888.00
2022-12-04T09:39:56.027Z,7052.00
2022-12-04T09:40:55.777Z,7232.00
2022-12-04T09:41:55.853Z,7388.00
2022-12-04T09:42:55.776Z,7484.00
2022-12-04T09:43:55.759Z,7500.00
2022-12-04T09:44:55.814Z,7464.00
2022-12-04T09:45:55.811Z,7388.00
2022-12-04T09:46:55.813Z,7300.00
2022-12-04T09:47:55.792Z,7216.00
2022-12-04T09:48:55.705Z,7148.00
2022-12-04T09:49:56.151Z,7100.00
2022-12-04T09:50:55.699Z,7120.00
2022-12-04T09:51:55.712Z,7240.00
2022-12-04T09:52:55.644Z,7476.00
2022-12-04T09:53:55.679Z,7788.00
2022-12-04T09:54:55.649Z,8120.00
2022-12-04T09:55:55.607Z,8400.00
2022-12-04T09:56:55.607Z,8548.00
2022-12-04T09:58:01.388Z,8564.00
2022-12-04T09:58:56.818Z,8452.00
2022-12-04T09:59:55.973Z,8256.00
2022-12-04T10:00:55.560Z,8012.00
2022-12-04T10:01:55.559Z,7736.00
2022-12-04T10:02:55.737Z,7452.00
2022-12-04T10:03:57.806Z,7160.00
2022-12-04T10:04:56.522Z,6836.00
2022-12-04T10:05:55.545Z,6480.00
2022-12-04T10:06:55.520Z,6136.00
2022-12-04T10:07:55.616Z,5828.00
2022-12-04T10:08:55.517Z,5564.00
2022-12-04T10:09:55.847Z,5360.00
2022-12-04T10:10:56.330Z,5176.00
2022-12-04T10:11:55.461Z,5028.00
2022-12-04T10:12:55.545Z,4896.00
2022-12-04T10:13:55.460Z,4776.00
2022-12-04T10:14:55.453Z,4688.00
2022-12-04T10:15:55.562Z,4616.00
2022-12-04T10:16:55.480Z,4552.00
2022-12-04T10:17:55.398Z,4496.00
2022-12-04T10:18:55.431Z,4424.00
2022-12-04T10:19:55.615Z,4336.00
2022-12-04T10:20:55.344Z,4208.00
2022-12-04T10:21:55.348Z,4068.00
2022-12-04T10:22:55.401Z,3936.00
2022-12-04T10:23:55.419Z,3828.00
2022-12-04T10:24:55.316Z,3760.00
2022-12-04T10:25:55.289Z,3728.00
2022-12-04T10:26:55.307Z,3708.00
2022-12-04T10:27:55.362Z,3696.00
2022-12-04T10:28:55.730Z,3684.00
2022-12-04T10:29:55.510Z,3680.00
2022-12-04T10:30:55.334Z,3720.00
2022-12-04T10:31:55.260Z,3804.00
2022-12-04T10:32:55.296Z,3892.00
2022-12-04T10:33:55.638Z,3964.00
2022-12-04T10:34:55.220Z,3992.00
2022-12-04T10:35:55.188Z,3984.00
2022-12-04T10:36:55.220Z,3964.00
2022-12-04T10:37:55.272Z,3944.00
2022-12-04T10:38:55.188Z,3944.00
2022-12-04T10:39:55.488Z,3952.00
2022-12-04T10:40:55.145Z,3976.00
2022-12-04T10:41:55.395Z,4012.00
2022-12-04T10:42:55.121Z,4068.00
2022-12-04T10:43:55.165Z,4124.00
2022-12-04T10:44:55.140Z,4156.00
2022-12-04T10:45:55.136Z,4156.00
2022-12-04T10:46:55.210Z,4136.00
2022-12-04T10:47:55.072Z,4124.00
2022-12-04T10:48:55.155Z,4140.00
2022-12-04T10:49:55.374Z,4172.00
2022-12-04T10:50:55.059Z,4220.00
2022-12-04T10:51:55.271Z,4280.00
2022-12-04T10:52:55.030Z,4352.00
2022-12-04T10:53:55.063Z,4416.00
2022-12-04T10:54:54.992Z,4472.00
2022-12-04T10:55:55.044Z,4504.00
2022-12-04T10:56:54.985Z,4540.00
2022-12-04T10:57:55.008Z,4556.00
2022-12-04T10:58:54.965Z,4568.00
2022-12-04T10:59:55.709Z,4560.00
2022-12-04T11:00:54.990Z,4556.00
2022-12-04T11:01:54.996Z,4560.00
2022-12-04T11:02:54.953Z,4560.00
2022-12-04T11:03:54.943Z,4528.00
2022-12-04T11:04:54.933Z,4444.00
2022-12-04T11:05:54.890Z,4324.00
2022-12-04T11:06:54.917Z,4196.00
2022-12-04T11:07:54.988Z,4076.00
2022-12-04T11:08:54.896Z,3984.00
2022-12-04T11:09:55.136Z,3932.00
2022-12-04T11:10:54.840Z,3908.00
2022-12-04T11:11:54.907Z,3924.00
2022-12-04T11:12:54.818Z,3948.00
2022-12-04T11:13:54.843Z,3996.00
2022-12-04T11:14:54.780Z,4052.00
2022-12-04T11:15:54.911Z,4100.00
2022-12-04T11:16:54.777Z,4128.00
2022-12-04T11:17:54.763Z,4160.00
2022-12-04T11:18:54.877Z,4168.00
2022-12-04T11:19:54.976Z,4172.00
2022-12-04T11:20:54.734Z,4188.00
2022-12-04T11:21:54.833Z,4216.00
2022-12-04T11:22:54.735Z,4256.00
2022-12-04T11:23:54.723Z,4304.00
2022-12-04T11:24:54.684Z,4372.00
2022-12-04T11:25:54.674Z,4428.00
2022-12-04T11:26:54.677Z,4488.00
2022-12-04T11:27:54.657Z,4556.00
2022-12-04T11:28:54.709Z,4616.00
2022-12-04T11:29:55.134Z,4648.00
2022-12-04T11:30:54.799Z,4652.00
2022-12-04T11:31:54.829Z,4620.00
2022-12-04T11:33:30.016Z,4532.00
2022-12-04T11:34:30.022Z,4476.00
2022-12-04T11:35:29.987Z,4460.00
2022-12-04T11:36:30.132Z,4476.00
2022-12-04T11:37:30.104Z,4524.00
2022-12-04T11:38:30.028Z,4576.00
2022-12-04T11:39:29.963Z,4680.00
2022-12-04T11:40:29.944Z,4768.00
2022-12-04T11:41:29.936Z,4812.00
2022-12-04T11:42:30.062Z,4856.00
2022-12-04T11:43:29.912Z,4880.00
2022-12-04T11:44:30.069Z,4892.00
2022-12-04T11:45:30.801Z,4964.00
2022-12-04T11:46:29.969Z,5024.00
2022-12-04T11:47:30.143Z,5020.00
2022-12-04T11:48:29.882Z,4884.00
2022-12-04T11:49:30.051Z,4616.00
2022-12-04T11:50:29.845Z,4448.00
2022-12-04T11:51:30.395Z,4388.00
2022-12-04T11:52:29.823Z,4420.00
2022-12-04T11:53:30.383Z,4488.00
2022-12-04T11:54:30.039Z,4512.00
2022-12-04T11:55:30.127Z,4536.00
2022-12-04T11:56:31.353Z,4520.00
2022-12-04T11:57:29.959Z,4448.00
2022-12-04T11:58:29.740Z,4376.00
2022-12-04T11:59:29.855Z,4288.00
2022-12-04T12:00:29.741Z,4180.00
2022-12-04T12:01:29.801Z,4112.00
2022-12-04T12:02:30.099Z,4080.00
2022-12-04T12:03:29.907Z,4088.00
2022-12-04T12:04:29.709Z,4136.00
2022-12-04T12:05:29.680Z,4236.00
2022-12-04T12:06:29.660Z,4336.00
2022-12-04T12:07:29.796Z,4448.00
2022-12-04T12:08:29.647Z,4648.00
2022-12-04T12:09:29.900Z,4916.00
2022-12-04T12:10:29.638Z,5104.00
2022-12-04T12:11:29.617Z,5200.00
2022-12-04T12:12:29.677Z,5200.00
2022-12-04T12:13:30.125Z,5128.00
2022-12-04T12:14:29.829Z,4968.00
2022-12-04T12:15:29.585Z,4812.00
2022-12-04T12:16:30.682Z,4676.00
2022-12-04T12:17:29.547Z,4532.00
2022-12-04T12:18:29.654Z,4400.00
2022-12-04T12:19:30.026Z,4268.00
2022-12-04T12:20:29.561Z,4128.00
2022-12-04T12:21:29.496Z,4012.00
2022-12-04T12:22:29.654Z,3960.00
2022-12-04T12:23:30.281Z,3960.00
2022-12-04T12:24:29.541Z,3948.00
2022-12-04T12:25:29.461Z,3920.00
2022-12-04T12:26:29.777Z,3900.00
2022-12-04T12:27:29.553Z,3912.00
2022-12-04T12:28:29.577Z,3992.00
2022-12-04T12:29:29.886Z,4064.00
2022-12-04T12:30:29.392Z,4144.00
2022-12-04T12:31:29.544Z,4200.00
2022-12-04T12:32:29.384Z,4292.00
2022-12-04T12:33:29.374Z,4420.00
2022-12-04T12:34:29.471Z,4548.00
2022-12-04T12:35:29.493Z,4664.00
2022-12-04T12:36:29.334Z,4740.00
2022-12-04T12:37:29.324Z,4784.00
2022-12-04T12:38:29.405Z,4792.00
2022-12-04T12:39:29.369Z,4736.00
2022-12-04T12:40:29.297Z,4632.00
2022-12-04T12:41:29.339Z,4512.00
2022-12-04T12:42:29.337Z,4424.00
2022-12-04T12:43:29.402Z,4404.00
2022-12-04T12:44:29.277Z,4416.00
2022-12-04T12:45:29.516Z,4372.00